sensor_id;sensor_type;location;lat;lon;timestamp;temperature;humidity
5588;DHT22;2816;49.778;9.986;2023-05-16T00:00:39;12.80;99.90
5588;DHT22;2816;49.778;9.986;2023-05-16T00:03:06;12.80;99.90
5588;DHT22;2816;49.778;9.986;2023-05-16T00:05:36;12.80;99.90
5588;DHT22;2816;49.778;9.986;2023-05-16T00:08:04;12.80;99.90
5588;DHT22;2816;49.778;9.986;2023-05-16T00:10:32;12.80;99.90
5588;DHT22;2816;49.778;9.986;2023-05-16T00:12:59;12.70;99.90
5588;DHT22;2816;49.778;9.986;2023-05-16T00:15:26;12.70;99.90
5588;DHT22;2816;49.778;9.986;2023-05-16T00:17:54;12.70;99.90
5588;DHT22;2816;49.778;9.986;2023-05-16T00:20:23;12.60;99.90
5588;DHT22;2816;49.778;9.986;2023-05-16T00:22:50;12.60;99.90
5588;DHT22;2816;49.778;9.986;2023-05-16T00:25:17;12.60;99.90
5588;DHT22;2816;49.778;9.986;2023-05-16T00:27:45;12.50;99.90
5588;DHT22;2816;49.778;9.986;2023-05-16T00:30:13;12.50;99.90
5588;DHT22;2816;49.778;9.986;2023-05-16T00:32:39;12.50;99.90
5588;DHT22;2816;49.778;9.986;2023-05-16T00:35:07;12.50;99.90
5588;DHT22;2816;49.778;9.986;2023-05-16T00:37:35;12.40;99.90
5588;DHT22;2816;49.778;9.986;2023-05-16T00:40:03;12.40;99.90
5588;DHT22;2816;49.778;9.986;2023-05-16T00:42:30;12.40;99.90
5588;DHT22;2816;49.778;9.986;2023-05-16T00:44:59;12.40;99.90
5588;DHT22;2816;49.778;9.986;2023-05-16T00:47:25;12.30;99.90
5588;DHT22;2816;49.778;9.986;2023-05-16T00:49:52;12.30;99.90
5588;DHT22;2816;49.778;9.986;2023-05-16T00:52:19;12.20;99.90
5588;DHT22;2816;49.778;9.986;2023-05-16T00:54:46;12.20;99.90
5588;DHT22;2816;49.778;9.986;2023-05-16T00:57:14;12.10;99.90
5588;DHT22;2816;49.778;9.986;2023-05-16T00:59:41;12.10;99.90
5588;DHT22;2816;49.778;9.986;2023-05-16T01:02:09;12.10;99.90
5588;DHT22;2816;49.778;9.986;2023-05-16T01:04:37;12.10;99.90
5588;DHT22;2816;49.778;9.986;2023-05-16T01:07:05;12.10;99.90
5588;DHT22;2816;49.778;9.986;2023-05-16T01:09:32;12.00;99.90
5588;DHT22;2816;49.778;9.986;2023-05-16T01:12:08;12.00;99.90
5588;DHT22;2816;49.778;9.986;2023-05-16T01:14:44;12.00;99.90
5588;DHT22;2816;49.778;9.986;2023-05-16T01:17:21;12.00;99.90
5588;DHT22;2816;49.778;9.986;2023-05-16T01:20:02;12.00;99.90
5588;DHT22;2816;49.778;9.986;2023-05-16T01:22:41;12.00;99.90
5588;DHT22;2816;49.778;9.986;2023-05-16T01:25:26;12.00;99.90
5588;DHT22;2816;49.778;9.986;2023-05-16T01:27:58;11.90;99.90
5588;DHT22;2816;49.778;9.986;2023-05-16T01:30:35;11.90;99.90
5588;DHT22;2816;49.778;9.986;2023-05-16T01:33:02;11.90;99.90
5588;DHT22;2816;49.778;9.986;2023-05-16T01:35:30;11.90;99.90
5588;DHT22;2816;49.778;9.986;2023-05-16T01:38:02;11.90;99.90
5588;DHT22;2816;49.778;9.986;2023-05-16T01:40:37;11.90;99.90
5588;DHT22;2816;49.778;9.986;2023-05-16T01:43:12;11.80;99.90
5588;DHT22;2816;49.778;9.986;2023-05-16T01:45:45;11.80;99.90
5588;DHT22;2816;49.778;9.986;2023-05-16T01:48:17;11.80;99.90
5588;DHT22;2816;49.778;9.986;2023-05-16T01:50:53;11.80;99.90
5588;DHT22;2816;49.778;9.986;2023-05-16T01:53:24;11.70;99.90
5588;DHT22;2816;49.778;9.986;2023-05-16T01:55:55;11.80;99.90
5588;DHT22;2816;49.778;9.986;2023-05-16T01:58:26;11.80;99.90
5588;DHT22;2816;49.778;9.986;2023-05-16T02:00:54;11.80;99.90
5588;DHT22;2816;49.778;9.986;2023-05-16T02:03:25;11.80;99.90
5588;DHT22;2816;49.778;9.986;2023-05-16T02:05:52;11.80;99.90
5588;DHT22;2816;49.778;9.986;2023-05-16T02:08:20;11.80;99.90
5588;DHT22;2816;49.778;9.986;2023-05-16T02:10:47;11.80;99.90
5588;DHT22;2816;49.778;9.986;2023-05-16T02:13:13;11.90;99.90
5588;DHT22;2816;49.778;9.986;2023-05-16T02:15:42;11.90;99.90
5588;DHT22;2816;49.778;9.986;2023-05-16T02:18:09;12.00;99.90
5588;DHT22;2816;49.778;9.986;2023-05-16T02:20:37;12.00;99.90
5588;DHT22;2816;49.778;9.986;2023-05-16T02:23:04;12.10;99.90
5588;DHT22;2816;49.778;9.986;2023-05-16T02:25:31;12.10;99.90
5588;DHT22;2816;49.778;9.986;2023-05-16T02:27:58;12.20;99.90
5588;DHT22;2816;49.778;9.986;2023-05-16T02:30:25;12.20;99.90
5588;DHT22;2816;49.778;9.986;2023-05-16T02:32:53;12.30;99.90
5588;DHT22;2816;49.778;9.986;2023-05-16T02:35:20;12.30;99.90
5588;DHT22;2816;49.778;9.986;2023-05-16T02:37:47;12.30;99.90
5588;DHT22;2816;49.778;9.986;2023-05-16T02:40:14;12.30;99.90
5588;DHT22;2816;49.778;9.986;2023-05-16T02:42:41;12.30;99.90
5588;DHT22;2816;49.778;9.986;2023-05-16T02:45:09;12.30;99.90
5588;DHT22;2816;49.778;9.986;2023-05-16T02:47:36;12.30;99.90
5588;DHT22;2816;49.778;9.986;2023-05-16T02:50:06;12.30;99.90
5588;DHT22;2816;49.778;9.986;2023-05-16T02:52:32;12.30;99.90
5588;DHT22;2816;49.778;9.986;2023-05-16T02:55:00;12.30;99.90
5588;DHT22;2816;49.778;9.986;2023-05-16T02:57:27;12.30;99.90
5588;DHT22;2816;49.778;9.986;2023-05-16T02:59:54;12.40;99.90
5588;DHT22;2816;49.778;9.986;2023-05-16T03:02:21;12.40;99.90
5588;DHT22;2816;49.778;9.986;2023-05-16T03:04:48;12.50;99.90
5588;DHT22;2816;49.778;9.986;2023-05-16T03:07:16;12.50;99.90
5588;DHT22;2816;49.778;9.986;2023-05-16T03:09:43;12.50;99.90
5588;DHT22;2816;49.778;9.986;2023-05-16T03:12:10;12.50;99.90
5588;DHT22;2816;49.778;9.986;2023-05-16T03:14:37;12.60;99.90
5588;DHT22;2816;49.778;9.986;2023-05-16T03:17:04;12.60;99.90
5588;DHT22;2816;49.778;9.986;2023-05-16T03:19:31;12.60;99.90
5588;DHT22;2816;49.778;9.986;2023-05-16T03:21:58;12.60;99.90
5588;DHT22;2816;49.778;9.986;2023-05-16T03:24:26;12.60;99.90
5588;DHT22;2816;49.778;9.986;2023-05-16T03:26:53;12.50;99.90
5588;DHT22;2816;49.778;9.986;2023-05-16T03:29:20;12.50;99.90
5588;DHT22;2816;49.778;9.986;2023-05-16T03:31:47;12.50;99.90
5588;DHT22;2816;49.778;9.986;2023-05-16T03:34:14;12.60;99.90
5588;DHT22;2816;49.778;9.986;2023-05-16T03:36:41;12.60;99.90
5588;DHT22;2816;49.778;9.986;2023-05-16T03:39:08;12.60;99.90
5588;DHT22;2816;49.778;9.986;2023-05-16T03:41:37;12.60;99.90
5588;DHT22;2816;49.778;9.986;2023-05-16T03:44:04;12.50;99.90
5588;DHT22;2816;49.778;9.986;2023-05-16T03:46:31;12.50;99.90
5588;DHT22;2816;49.778;9.986;2023-05-16T03:48:58;12.60;99.90
5588;DHT22;2816;49.778;9.986;2023-05-16T03:51:25;12.50;99.90
5588;DHT22;2816;49.778;9.986;2023-05-16T03:53:52;12.50;99.90
5588;DHT22;2816;49.778;9.986;2023-05-16T03:56:19;12.60;99.90
5588;DHT22;2816;49.778;9.986;2023-05-16T03:58:48;12.60;99.90
5588;DHT22;2816;49.778;9.986;2023-05-16T04:01:15;12.70;99.90
5588;DHT22;2816;49.778;9.986;2023-05-16T04:03:42;12.60;99.90
5588;DHT22;2816;49.778;9.986;2023-05-16T04:06:09;12.60;99.90
5588;DHT22;2816;49.778;9.986;2023-05-16T04:08:36;12.60;99.90
5588;DHT22;2816;49.778;9.986;2023-05-16T04:11:04;12.50;99.90
5588;DHT22;2816;49.778;9.986;2023-05-16T04:13:31;12.50;99.90
5588;DHT22;2816;49.778;9.986;2023-05-16T04:15:59;12.50;99.90
5588;DHT22;2816;49.778;9.986;2023-05-16T04:18:26;12.50;99.90
5588;DHT22;2816;49.778;9.986;2023-05-16T04:20:53;12.40;99.90
5588;DHT22;2816;49.778;9.986;2023-05-16T04:23:20;12.40;99.90
5588;DHT22;2816;49.778;9.986;2023-05-16T04:25:47;12.40;99.90
5588;DHT22;2816;49.778;9.986;2023-05-16T04:28:15;12.50;99.90
5588;DHT22;2816;49.778;9.986;2023-05-16T04:30:42;12.50;99.90
5588;DHT22;2816;49.778;9.986;2023-05-16T04:33:11;12.40;99.90
5588;DHT22;2816;49.778;9.986;2023-05-16T04:35:38;12.50;99.90
5588;DHT22;2816;49.778;9.986;2023-05-16T04:38:05;12.50;99.90
5588;DHT22;2816;49.778;9.986;2023-05-16T04:40:32;12.50;99.90
5588;DHT22;2816;49.778;9.986;2023-05-16T04:42:59;12.50;99.90
5588;DHT22;2816;49.778;9.986;2023-05-16T04:45:26;12.50;99.90
5588;DHT22;2816;49.778;9.986;2023-05-16T04:47:53;12.50;99.90
5588;DHT22;2816;49.778;9.986;2023-05-16T04:50:21;12.50;99.90
5588;DHT22;2816;49.778;9.986;2023-05-16T04:52:48;12.60;99.90
5588;DHT22;2816;49.778;9.986;2023-05-16T04:55:15;12.60;99.90
5588;DHT22;2816;49.778;9.986;2023-05-16T04:57:42;12.50;99.90
5588;DHT22;2816;49.778;9.986;2023-05-16T05:00:10;12.50;99.90
5588;DHT22;2816;49.778;9.986;2023-05-16T05:02:38;12.60;99.90
5588;DHT22;2816;49.778;9.986;2023-05-16T05:05:06;12.60;99.90
5588;DHT22;2816;49.778;9.986;2023-05-16T05:07:34;12.50;99.90
5588;DHT22;2816;49.778;9.986;2023-05-16T05:10:01;12.50;99.90
5588;DHT22;2816;49.778;9.986;2023-05-16T05:12:28;12.50;99.90
5588;DHT22;2816;49.778;9.986;2023-05-16T05:14:55;12.50;99.90
5588;DHT22;2816;49.778;9.986;2023-05-16T05:17:22;12.40;99.90
5588;DHT22;2816;49.778;9.986;2023-05-16T05:19:49;12.40;99.90
5588;DHT22;2816;49.778;9.986;2023-05-16T05:22:16;12.30;99.90
5588;DHT22;2816;49.778;9.986;2023-05-16T05:24:44;12.20;99.90
5588;DHT22;2816;49.778;9.986;2023-05-16T05:27:11;12.30;99.90
5588;DHT22;2816;49.778;9.986;2023-05-16T05:29:38;12.40;99.90
5588;DHT22;2816;49.778;9.986;2023-05-16T05:32:05;12.40;99.90
5588;DHT22;2816;49.778;9.986;2023-05-16T05:34:32;12.40;99.90
5588;DHT22;2816;49.778;9.986;2023-05-16T05:36:59;12.30;99.90
5588;DHT22;2816;49.778;9.986;2023-05-16T05:39:26;12.20;99.90
5588;DHT22;2816;49.778;9.986;2023-05-16T05:41:55;12.20;99.90
5588;DHT22;2816;49.778;9.986;2023-05-16T05:44:23;12.20;99.90
5588;DHT22;2816;49.778;9.986;2023-05-16T05:46:50;12.20;99.90
5588;DHT22;2816;49.778;9.986;2023-05-16T05:49:17;12.20;99.90
5588;DHT22;2816;49.778;9.986;2023-05-16T05:51:43;12.00;99.90
5588;DHT22;2816;49.778;9.986;2023-05-16T05:54:10;12.10;99.90
5588;DHT22;2816;49.778;9.986;2023-05-16T05:56:38;12.20;99.90
5588;DHT22;2816;49.778;9.986;2023-05-16T05:59:06;12.20;99.90
5588;DHT22;2816;49.778;9.986;2023-05-16T06:01:33;12.30;99.90
5588;DHT22;2816;49.778;9.986;2023-05-16T06:04:00;12.30;99.90
5588;DHT22;2816;49.778;9.986;2023-05-16T06:06:27;12.10;99.90
5588;DHT22;2816;49.778;9.986;2023-05-16T06:08:54;12.10;99.90
5588;DHT22;2816;49.778;9.986;2023-05-16T06:11:20;12.00;99.90
5588;DHT22;2816;49.778;9.986;2023-05-16T06:13:47;12.00;99.90
5588;DHT22;2816;49.778;9.986;2023-05-16T06:16:16;12.20;99.90
5588;DHT22;2816;49.778;9.986;2023-05-16T06:18:43;12.20;99.90
5588;DHT22;2816;49.778;9.986;2023-05-16T06:21:10;12.10;99.90
5588;DHT22;2816;49.778;9.986;2023-05-16T06:23:37;12.00;99.90
5588;DHT22;2816;49.778;9.986;2023-05-16T06:26:04;12.00;99.90
5588;DHT22;2816;49.778;9.986;2023-05-16T06:28:31;12.10;99.90
5588;DHT22;2816;49.778;9.986;2023-05-16T06:30:58;12.10;99.90
5588;DHT22;2816;49.778;9.986;2023-05-16T06:33:26;12.20;99.90
5588;DHT22;2816;49.778;9.986;2023-05-16T06:35:53;11.90;99.90
5588;DHT22;2816;49.778;9.986;2023-05-16T06:38:20;12.00;99.90
5588;DHT22;2816;49.778;9.986;2023-05-16T06:40:47;11.80;99.90
5588;DHT22;2816;49.778;9.986;2023-05-16T06:43:14;11.70;99.90
5588;DHT22;2816;49.778;9.986;2023-05-16T06:45:40;11.70;99.90
5588;DHT22;2816;49.778;9.986;2023-05-16T06:48:07;11.80;99.90
5588;DHT22;2816;49.778;9.986;2023-05-16T06:50:36;11.80;99.90
5588;DHT22;2816;49.778;9.986;2023-05-16T06:53:02;11.70;99.90
5588;DHT22;2816;49.778;9.986;2023-05-16T06:55:31;11.80;99.90
5588;DHT22;2816;49.778;9.986;2023-05-16T06:57:58;11.70;99.90
5588;DHT22;2816;49.778;9.986;2023-05-16T07:00:25;11.60;99.90
5588;DHT22;2816;49.778;9.986;2023-05-16T07:02:52;11.50;99.90
5588;DHT22;2816;49.778;9.986;2023-05-16T07:05:19;11.70;99.90
5588;DHT22;2816;49.778;9.986;2023-05-16T07:07:49;11.70;99.90
5588;DHT22;2816;49.778;9.986;2023-05-16T07:10:16;11.70;99.90
5588;DHT22;2816;49.778;9.986;2023-05-16T07:12:43;11.70;99.90
5588;DHT22;2816;49.778;9.986;2023-05-16T07:15:10;11.80;99.90
5588;DHT22;2816;49.778;9.986;2023-05-16T07:17:37;11.80;99.90
5588;DHT22;2816;49.778;9.986;2023-05-16T07:20:05;11.70;99.90
5588;DHT22;2816;49.778;9.986;2023-05-16T07:22:32;11.80;99.90
5588;DHT22;2816;49.778;9.986;2023-05-16T07:25:01;11.80;99.90
5588;DHT22;2816;49.778;9.986;2023-05-16T07:27:28;11.80;99.90
5588;DHT22;2816;49.778;9.986;2023-05-16T07:29:56;11.70;99.90
5588;DHT22;2816;49.778;9.986;2023-05-16T07:32:23;11.70;99.90
5588;DHT22;2816;49.778;9.986;2023-05-16T07:34:50;11.80;99.90
5588;DHT22;2816;49.778;9.986;2023-05-16T07:37:17;11.90;99.90
5588;DHT22;2816;49.778;9.986;2023-05-16T07:39:45;11.90;99.90
5588;DHT22;2816;49.778;9.986;2023-05-16T07:42:13;11.90;99.90
5588;DHT22;2816;49.778;9.986;2023-05-16T07:44:40;11.90;99.90
5588;DHT22;2816;49.778;9.986;2023-05-16T07:47:07;12.00;99.90
5588;DHT22;2816;49.778;9.986;2023-05-16T07:49:34;12.00;99.90
5588;DHT22;2816;49.778;9.986;2023-05-16T07:52:01;12.00;99.90
5588;DHT22;2816;49.778;9.986;2023-05-16T07:54:28;11.90;99.90
5588;DHT22;2816;49.778;9.986;2023-05-16T07:56:55;12.00;99.90
5588;DHT22;2816;49.778;9.986;2023-05-16T07:59:23;12.00;99.90
5588;DHT22;2816;49.778;9.986;2023-05-16T08:01:50;12.10;99.90
5588;DHT22;2816;49.778;9.986;2023-05-16T08:04:17;12.10;99.90
5588;DHT22;2816;49.778;9.986;2023-05-16T08:06:45;12.20;99.90
5588;DHT22;2816;49.778;9.986;2023-05-16T08:09:12;12.30;99.90
5588;DHT22;2816;49.778;9.986;2023-05-16T08:11:39;12.30;99.90
5588;DHT22;2816;49.778;9.986;2023-05-16T08:14:06;12.30;99.90
5588;DHT22;2816;49.778;9.986;2023-05-16T08:16:34;12.30;99.90
5588;DHT22;2816;49.778;9.986;2023-05-16T08:19:01;12.40;99.90
5588;DHT22;2816;49.778;9.986;2023-05-16T08:21:28;12.30;99.90
5588;DHT22;2816;49.778;9.986;2023-05-16T08:23:56;12.40;99.90
5588;DHT22;2816;49.778;9.986;2023-05-16T08:26:23;12.40;99.90
5588;DHT22;2816;49.778;9.986;2023-05-16T08:28:51;12.50;99.90
5588;DHT22;2816;49.778;9.986;2023-05-16T08:31:17;12.60;99.90
5588;DHT22;2816;49.778;9.986;2023-05-16T08:33:46;12.60;99.90
5588;DHT22;2816;49.778;9.986;2023-05-16T08:36:13;12.70;99.90
5588;DHT22;2816;49.778;9.986;2023-05-16T08:38:43;12.70;99.90
5588;DHT22;2816;49.778;9.986;2023-05-16T08:41:10;12.80;99.90
5588;DHT22;2816;49.778;9.986;2023-05-16T08:43:37;12.70;99.90
5588;DHT22;2816;49.778;9.986;2023-05-16T08:46:06;12.80;99.90
5588;DHT22;2816;49.778;9.986;2023-05-16T08:48:33;12.90;99.90
5588;DHT22;2816;49.778;9.986;2023-05-16T08:51:05;13.00;99.90
5588;DHT22;2816;49.778;9.986;2023-05-16T08:53:38;13.00;99.90
5588;DHT22;2816;49.778;9.986;2023-05-16T08:56:06;13.00;99.90
5588;DHT22;2816;49.778;9.986;2023-05-16T08:58:34;13.10;99.90
5588;DHT22;2816;49.778;9.986;2023-05-16T09:01:03;13.10;99.90
5588;DHT22;2816;49.778;9.986;2023-05-16T09:03:34;13.00;99.90
5588;DHT22;2816;49.778;9.986;2023-05-16T09:06:02;13.00;99.90
5588;DHT22;2816;49.778;9.986;2023-05-16T09:08:31;13.10;99.90
5588;DHT22;2816;49.778;9.986;2023-05-16T09:10:58;13.00;99.90
5588;DHT22;2816;49.778;9.986;2023-05-16T09:13:25;13.00;99.90
5588;DHT22;2816;49.778;9.986;2023-05-16T09:16:07;13.00;99.90
5588;DHT22;2816;49.778;9.986;2023-05-16T09:18:33;13.00;99.90
5588;DHT22;2816;49.778;9.986;2023-05-16T09:21:03;12.90;99.90
5588;DHT22;2816;49.778;9.986;2023-05-16T09:23:32;13.00;99.90
5588;DHT22;2816;49.778;9.986;2023-05-16T09:25:58;12.80;99.90
5588;DHT22;2816;49.778;9.986;2023-05-16T09:28:25;12.80;99.90
5588;DHT22;2816;49.778;9.986;2023-05-16T09:30:53;12.70;99.90
5588;DHT22;2816;49.778;9.986;2023-05-16T09:33:25;12.80;99.90
5588;DHT22;2816;49.778;9.986;2023-05-16T09:35:57;12.80;99.90
5588;DHT22;2816;49.778;9.986;2023-05-16T09:38:26;12.90;99.90
5588;DHT22;2816;49.778;9.986;2023-05-16T09:40:54;13.00;99.90
5588;DHT22;2816;49.778;9.986;2023-05-16T09:43:24;13.00;99.90
5588;DHT22;2816;49.778;9.986;2023-05-16T09:45:52;13.10;99.90
5588;DHT22;2816;49.778;9.986;2023-05-16T09:48:20;13.10;99.90
5588;DHT22;2816;49.778;9.986;2023-05-16T09:50:49;13.10;99.90
5588;DHT22;2816;49.778;9.986;2023-05-16T09:53:18;13.10;99.90
5588;DHT22;2816;49.778;9.986;2023-05-16T09:55:58;13.20;99.90
5588;DHT22;2816;49.778;9.986;2023-05-16T09:58:28;13.20;99.90
5588;DHT22;2816;49.778;9.986;2023-05-16T10:00:56;13.20;99.90
5588;DHT22;2816;49.778;9.986;2023-05-16T10:03:24;13.30;99.90
5588;DHT22;2816;49.778;9.986;2023-05-16T10:05:52;13.10;99.90
5588;DHT22;2816;49.778;9.986;2023-05-16T10:08:20;13.10;99.90
5588;DHT22;2816;49.778;9.986;2023-05-16T10:10:50;13.10;99.90
5588;DHT22;2816;49.778;9.986;2023-05-16T10:13:20;13.10;99.90
5588;DHT22;2816;49.778;9.986;2023-05-16T10:15:48;13.10;99.90
5588;DHT22;2816;49.778;9.986;2023-05-16T10:18:16;13.20;99.90
5588;DHT22;2816;49.778;9.986;2023-05-16T10:20:46;13.10;99.90
5588;DHT22;2816;49.778;9.986;2023-05-16T10:23:17;13.10;99.90
5588;DHT22;2816;49.778;9.986;2023-05-16T10:25:45;13.00;99.90
5588;DHT22;2816;49.778;9.986;2023-05-16T10:28:13;13.00;99.90
5588;DHT22;2816;49.778;9.986;2023-05-16T10:30:43;12.80;99.90
5588;DHT22;2816;49.778;9.986;2023-05-16T10:33:11;12.60;99.90
5588;DHT22;2816;49.778;9.986;2023-05-16T10:35:39;12.50;99.90
5588;DHT22;2816;49.778;9.986;2023-05-16T10:38:07;12.50;99.90
5588;DHT22;2816;49.778;9.986;2023-05-16T10:40:36;12.60;99.90
5588;DHT22;2816;49.778;9.986;2023-05-16T10:43:06;12.50;99.90
5588;DHT22;2816;49.778;9.986;2023-05-16T10:45:33;12.40;99.90
5588;DHT22;2816;49.778;9.986;2023-05-16T10:48:04;12.40;99.90
5588;DHT22;2816;49.778;9.986;2023-05-16T10:50:32;12.40;99.90
5588;DHT22;2816;49.778;9.986;2023-05-16T10:53:19;12.30;99.90
5588;DHT22;2816;49.778;9.986;2023-05-16T10:56:05;12.40;99.90
5588;DHT22;2816;49.778;9.986;2023-05-16T10:58:43;12.40;99.90
5588;DHT22;2816;49.778;9.986;2023-05-16T11:01:18;12.40;99.90
5588;DHT22;2816;49.778;9.986;2023-05-16T11:04:04;12.40;99.90
5588;DHT22;2816;49.778;9.986;2023-05-16T11:06:32;12.50;99.90
5588;DHT22;2816;49.778;9.986;2023-05-16T11:09:06;12.50;99.90
5588;DHT22;2816;49.778;9.986;2023-05-16T11:11:39;12.50;99.90
5588;DHT22;2816;49.778;9.986;2023-05-16T11:14:07;12.60;99.90
5588;DHT22;2816;49.778;9.986;2023-05-16T11:16:34;12.70;99.90
5588;DHT22;2816;49.778;9.986;2023-05-16T11:19:06;12.70;99.90
5588;DHT22;2816;49.778;9.986;2023-05-16T11:22:05;12.70;99.90
5588;DHT22;2816;49.778;9.986;2023-05-16T11:24:32;12.80;99.90
5588;DHT22;2816;49.778;9.986;2023-05-16T11:27:01;12.80;99.90
5588;DHT22;2816;49.778;9.986;2023-05-16T11:29:30;12.80;99.90
5588;DHT22;2816;49.778;9.986;2023-05-16T11:31:58;12.70;99.90
5588;DHT22;2816;49.778;9.986;2023-05-16T11:34:26;12.70;99.90
5588;DHT22;2816;49.778;9.986;2023-05-16T11:36:53;12.70;99.90
5588;DHT22;2816;49.778;9.986;2023-05-16T11:39:20;12.60;99.90
5588;DHT22;2816;49.778;9.986;2023-05-16T11:41:49;12.50;99.90
5588;DHT22;2816;49.778;9.986;2023-05-16T11:44:16;12.40;99.90
5588;DHT22;2816;49.778;9.986;2023-05-16T11:46:43;12.50;99.90
5588;DHT22;2816;49.778;9.986;2023-05-16T11:49:10;12.40;99.90
5588;DHT22;2816;49.778;9.986;2023-05-16T11:51:39;12.40;99.90
5588;DHT22;2816;49.778;9.986;2023-05-16T11:54:07;12.40;99.90
5588;DHT22;2816;49.778;9.986;2023-05-16T11:56:35;12.30;99.90
5588;DHT22;2816;49.778;9.986;2023-05-16T11:59:02;12.40;99.90
5588;DHT22;2816;49.778;9.986;2023-05-16T12:01:33;12.40;99.90
5588;DHT22;2816;49.778;9.986;2023-05-16T12:04:01;12.60;99.90
5588;DHT22;2816;49.778;9.986;2023-05-16T12:06:33;12.80;99.90
5588;DHT22;2816;49.778;9.986;2023-05-16T12:09:01;12.80;99.90
5588;DHT22;2816;49.778;9.986;2023-05-16T12:11:35;12.90;99.90
5588;DHT22;2816;49.778;9.986;2023-05-16T12:14:02;12.90;99.90
5588;DHT22;2816;49.778;9.986;2023-05-16T12:16:29;13.00;99.90
5588;DHT22;2816;49.778;9.986;2023-05-16T12:18:57;13.00;99.90
5588;DHT22;2816;49.778;9.986;2023-05-16T12:21:24;13.00;99.90
5588;DHT22;2816;49.778;9.986;2023-05-16T12:23:54;13.10;99.90
5588;DHT22;2816;49.778;9.986;2023-05-16T12:26:25;13.00;99.90
5588;DHT22;2816;49.778;9.986;2023-05-16T12:28:56;13.10;99.90
5588;DHT22;2816;49.778;9.986;2023-05-16T12:31:27;13.20;99.90
5588;DHT22;2816;49.778;9.986;2023-05-16T12:33:55;13.10;99.90
5588;DHT22;2816;49.778;9.986;2023-05-16T12:36:23;13.00;99.90
5588;DHT22;2816;49.778;9.986;2023-05-16T12:38:51;13.00;99.90
5588;DHT22;2816;49.778;9.986;2023-05-16T12:41:19;13.00;99.90
5588;DHT22;2816;49.778;9.986;2023-05-16T12:43:47;12.90;99.90
5588;DHT22;2816;49.778;9.986;2023-05-16T12:46:15;13.00;99.90
5588;DHT22;2816;49.778;9.986;2023-05-16T12:48:42;13.00;99.90
5588;DHT22;2816;49.778;9.986;2023-05-16T12:51:11;13.00;99.90
5588;DHT22;2816;49.778;9.986;2023-05-16T12:53:43;13.10;99.90
5588;DHT22;2816;49.778;9.986;2023-05-16T12:56:11;13.10;99.90
5588;DHT22;2816;49.778;9.986;2023-05-16T12:58:40;13.20;99.90
5588;DHT22;2816;49.778;9.986;2023-05-16T13:01:08;13.30;99.90
5588;DHT22;2816;49.778;9.986;2023-05-16T13:03:35;13.40;99.90
5588;DHT22;2816;49.778;9.986;2023-05-16T13:06:02;13.50;99.90
5588;DHT22;2816;49.778;9.986;2023-05-16T13:08:30;13.50;99.90
5588;DHT22;2816;49.778;9.986;2023-05-16T13:10:57;13.50;99.90
5588;DHT22;2816;49.778;9.986;2023-05-16T13:13:24;13.50;99.90
5588;DHT22;2816;49.778;9.986;2023-05-16T13:15:51;13.50;99.90
5588;DHT22;2816;49.778;9.986;2023-05-16T13:18:19;13.50;99.90
5588;DHT22;2816;49.778;9.986;2023-05-16T13:20:46;13.60;99.90
5588;DHT22;2816;49.778;9.986;2023-05-16T13:23:13;13.50;99.90
5588;DHT22;2816;49.778;9.986;2023-05-16T13:25:40;13.40;99.90
5588;DHT22;2816;49.778;9.986;2023-05-16T13:28:07;13.40;99.90
5588;DHT22;2816;49.778;9.986;2023-05-16T13:30:35;13.50;99.90
5588;DHT22;2816;49.778;9.986;2023-05-16T13:33:02;13.60;99.90
5588;DHT22;2816;49.778;9.986;2023-05-16T13:35:31;13.50;99.90
5588;DHT22;2816;49.778;9.986;2023-05-16T13:37:58;13.70;99.90
5588;DHT22;2816;49.778;9.986;2023-05-16T13:40:25;13.70;99.90
5588;DHT22;2816;49.778;9.986;2023-05-16T13:42:52;13.60;99.90
5588;DHT22;2816;49.778;9.986;2023-05-16T13:45:19;13.70;99.90
5588;DHT22;2816;49.778;9.986;2023-05-16T13:47:46;13.40;99.90
5588;DHT22;2816;49.778;9.986;2023-05-16T13:50:13;13.40;99.90
5588;DHT22;2816;49.778;9.986;2023-05-16T13:52:41;13.40;99.90
5588;DHT22;2816;49.778;9.986;2023-05-16T13:55:09;13.50;99.90
5588;DHT22;2816;49.778;9.986;2023-05-16T13:57:35;13.40;99.90
5588;DHT22;2816;49.778;9.986;2023-05-16T14:00:03;13.40;99.90
5588;DHT22;2816;49.778;9.986;2023-05-16T14:02:37;13.50;99.90
5588;DHT22;2816;49.778;9.986;2023-05-16T14:05:04;13.50;99.90
5588;DHT22;2816;49.778;9.986;2023-05-16T14:07:31;13.40;99.90
5588;DHT22;2816;49.778;9.986;2023-05-16T14:09:59;13.50;99.90
5588;DHT22;2816;49.778;9.986;2023-05-16T14:12:26;13.50;99.90
5588;DHT22;2816;49.778;9.986;2023-05-16T14:14:53;13.50;99.90
5588;DHT22;2816;49.778;9.986;2023-05-16T14:17:20;13.50;99.90
5588;DHT22;2816;49.778;9.986;2023-05-16T14:19:47;13.60;99.90
5588;DHT22;2816;49.778;9.986;2023-05-16T14:22:14;13.60;99.90
5588;DHT22;2816;49.778;9.986;2023-05-16T14:24:43;13.60;99.90
5588;DHT22;2816;49.778;9.986;2023-05-16T14:27:11;13.60;99.90
5588;DHT22;2816;49.778;9.986;2023-05-16T14:29:39;13.50;99.90
5588;DHT22;2816;49.778;9.986;2023-05-16T14:32:06;13.60;99.90
5588;DHT22;2816;49.778;9.986;2023-05-16T14:34:35;13.70;99.90
5588;DHT22;2816;49.778;9.986;2023-05-16T14:37:01;13.60;99.90
5588;DHT22;2816;49.778;9.986;2023-05-16T14:39:28;13.60;99.90
5588;DHT22;2816;49.778;9.986;2023-05-16T14:41:55;13.80;99.90
5588;DHT22;2816;49.778;9.986;2023-05-16T14:44:24;13.80;99.90
5588;DHT22;2816;49.778;9.986;2023-05-16T14:46:51;13.80;99.90
5588;DHT22;2816;49.778;9.986;2023-05-16T14:49:18;13.90;99.90
5588;DHT22;2816;49.778;9.986;2023-05-16T14:51:45;13.90;99.90
5588;DHT22;2816;49.778;9.986;2023-05-16T14:54:13;13.90;99.90
5588;DHT22;2816;49.778;9.986;2023-05-16T14:56:40;14.00;99.90
5588;DHT22;2816;49.778;9.986;2023-05-16T14:59:07;14.10;99.90
5588;DHT22;2816;49.778;9.986;2023-05-16T15:01:36;14.10;99.90
5588;DHT22;2816;49.778;9.986;2023-05-16T15:04:03;14.00;99.90
5588;DHT22;2816;49.778;9.986;2023-05-16T15:06:29;14.00;99.90
5588;DHT22;2816;49.778;9.986;2023-05-16T15:08:56;14.00;99.90
5588;DHT22;2816;49.778;9.986;2023-05-16T15:11:23;14.10;99.90
5588;DHT22;2816;49.778;9.986;2023-05-16T15:13:50;13.90;99.90
5588;DHT22;2816;49.778;9.986;2023-05-16T15:16:18;13.90;99.90
5588;DHT22;2816;49.778;9.986;2023-05-16T15:18:46;14.00;99.90
5588;DHT22;2816;49.778;9.986;2023-05-16T15:21:13;14.00;99.90
5588;DHT22;2816;49.778;9.986;2023-05-16T15:23:40;14.10;99.90
5588;DHT22;2816;49.778;9.986;2023-05-16T15:26:07;14.10;99.90
5588;DHT22;2816;49.778;9.986;2023-05-16T15:28:35;14.10;99.90
5588;DHT22;2816;49.778;9.986;2023-05-16T15:31:02;14.10;99.90
5588;DHT22;2816;49.778;9.986;2023-05-16T15:33:30;14.10;99.90
5588;DHT22;2816;49.778;9.986;2023-05-16T15:35:58;14.10;99.90
5588;DHT22;2816;49.778;9.986;2023-05-16T15:38:26;14.20;99.30
5588;DHT22;2816;49.778;9.986;2023-05-16T15:40:53;14.20;98.70
5588;DHT22;2816;49.778;9.986;2023-05-16T15:43:20;14.40;98.50
5588;DHT22;2816;49.778;9.986;2023-05-16T15:45:47;14.50;98.10
5588;DHT22;2816;49.778;9.986;2023-05-16T15:48:14;14.70;98.00
5588;DHT22;2816;49.778;9.986;2023-05-16T15:50:41;14.90;97.70
5588;DHT22;2816;49.778;9.986;2023-05-16T15:53:10;14.90;96.90
5588;DHT22;2816;49.778;9.986;2023-05-16T15:55:36;14.90;96.90
5588;DHT22;2816;49.778;9.986;2023-05-16T15:58:04;14.60;96.60
5588;DHT22;2816;49.778;9.986;2023-05-16T16:00:31;14.60;97.00
5588;DHT22;2816;49.778;9.986;2023-05-16T16:02:58;14.70;97.30
5588;DHT22;2816;49.778;9.986;2023-05-16T16:05:26;14.80;96.80
5588;DHT22;2816;49.778;9.986;2023-05-16T16:07:53;14.90;96.60